createdAt,value
2023-04-21T00:02:20.280Z,16.60
2023-04-21T00:04:47.244Z,17.40
2023-04-21T00:07:16.743Z,13.70
2023-04-21T00:09:43.325Z,17.00
2023-04-21T00:12:09.934Z,18.70
2023-04-21T00:14:36.459Z,15.70
2023-04-21T00:17:03.227Z,15.00
2023-04-21T00:19:30.615Z,17.10
2023-04-21T00:21:59.698Z,17.00
2023-04-21T00:24:26.376Z,16.60
2023-04-21T00:26:53.062Z,20.80
2023-04-21T00:29:22.472Z,20.30
2023-04-21T00:31:49.969Z,17.10
2023-04-21T00:34:16.699Z,19.40
2023-04-21T00:36:43.369Z,17.50
2023-04-21T00:39:09.940Z,17.30
2023-04-21T00:41:36.967Z,18.70
2023-04-21T00:44:05.591Z,15.60
2023-04-21T00:46:33.738Z,15.40
2023-04-21T00:49:03.196Z,19.00
2023-04-21T00:51:33.187Z,18.70
2023-04-21T00:54:02.349Z,20.40
2023-04-21T00:56:31.998Z,15.90
2023-04-21T00:59:00.449Z,18.30
2023-04-21T01:01:29.931Z,18.60
2023-04-21T01:04:01.585Z,17.30
2023-04-21T01:06:32.319Z,19.00
2023-04-21T01:08:58.888Z,17.40
2023-04-21T01:11:26.274Z,16.60
2023-04-21T01:13:56.705Z,18.20
2023-04-21T01:16:24.298Z,18.00
2023-04-21T01:18:53.732Z,17.00
2023-04-21T01:21:21.810Z,16.40
2023-04-21T01:23:48.681Z,19.90
2023-04-21T01:26:19.086Z,17.00
2023-04-21T01:28:47.651Z,18.30
2023-04-21T01:31:16.525Z,18.00
2023-04-21T01:33:43.394Z,17.30
2023-04-21T01:36:13.454Z,18.90
2023-04-21T01:38:41.433Z,18.00
2023-04-21T01:41:09.388Z,20.60
2023-04-21T01:43:37.062Z,23.80
2023-04-21T01:46:05.020Z,23.60
2023-04-21T01:48:31.703Z,20.40
2023-04-21T01:50:58.981Z,19.20
2023-04-21T01:53:26.855Z,19.70
2023-04-21T01:55:53.433Z,20.90
2023-04-21T01:58:21.142Z,17.40
2023-04-21T02:00:47.829Z,19.90
2023-04-21T02:03:14.512Z,22.50
2023-04-21T02:05:41.164Z,19.80
2023-04-21T02:08:07.897Z,18.40
2023-04-21T02:10:34.638Z,18.90
2023-04-21T02:13:01.193Z,24.80
2023-04-21T02:20:06.981Z,15.90
2023-04-21T02:22:33.742Z,18.00
2023-04-21T02:25:02.972Z,22.20
2023-04-21T02:27:29.668Z,16.60
2023-04-21T02:29:59.477Z,18.50
2023-04-21T02:32:26.438Z,16.30
2023-04-21T02:34:53.159Z,16.80
2023-04-21T02:37:20.370Z,20.70
2023-04-21T02:39:46.924Z,16.80
2023-04-21T02:42:13.477Z,17.40
2023-04-21T02:44:40.049Z,18.00
2023-04-21T02:47:06.890Z,19.80
2023-04-21T02:49:33.501Z,14.70
2023-04-21T02:51:59.985Z,18.90
2023-04-21T02:54:26.765Z,15.60
2023-04-21T02:56:53.313Z,16.40
2023-04-21T02:59:20.094Z,20.80
2023-04-21T03:01:49.109Z,18.00
2023-04-21T03:04:15.828Z,16.60
2023-04-21T03:06:42.614Z,16.00
2023-04-21T03:09:09.142Z,15.90
2023-04-21T03:11:35.857Z,14.60
2023-04-21T03:14:02.413Z,18.20
2023-04-21T03:16:29.529Z,16.90
2023-04-21T03:18:56.214Z,14.10
2023-04-21T03:21:22.735Z,17.20
2023-04-21T03:23:49.278Z,15.50
2023-04-21T03:26:16.462Z,15.50
2023-04-21T03:28:43.432Z,15.40
2023-04-21T03:31:09.958Z,15.10
2023-04-21T03:33:36.578Z,15.40
2023-04-21T03:36:03.217Z,15.60
2023-04-21T03:38:29.955Z,13.30
2023-04-21T03:40:56.907Z,18.50
2023-04-21T03:43:23.448Z,15.60
2023-04-21T03:45:50.016Z,19.20
2023-04-21T03:48:21.160Z,15.80
2023-04-21T03:50:47.772Z,19.50
2023-04-21T03:53:14.835Z,17.00
2023-04-21T03:55:41.414Z,16.70
2023-04-21T03:58:08.027Z,16.60
2023-04-21T04:00:34.797Z,21.30
2023-04-21T04:03:01.429Z,14.90
2023-04-21T04:05:28.394Z,15.90
2023-04-21T04:07:54.987Z,17.40
2023-04-21T04:10:21.518Z,17.90
2023-04-21T04:12:48.049Z,19.90
2023-04-21T04:15:15.535Z,15.20
2023-04-21T04:17:42.212Z,15.20
2023-04-21T04:20:11.301Z,13.90
2023-04-21T04:22:38.036Z,15.00
2023-04-21T04:25:05.503Z,14.90
2023-04-21T04:27:32.357Z,14.00
2023-04-21T04:29:59.210Z,14.80
2023-04-21T04:32:29.309Z,16.70
2023-04-21T04:34:55.889Z,13.60
2023-04-21T04:37:22.737Z,15.30
2023-04-21T04:39:50.386Z,19.50
2023-04-21T04:42:17.434Z,18.90
2023-04-21T04:44:44.162Z,16.70
2023-04-21T04:47:10.687Z,16.20
2023-04-21T04:49:37.308Z,14.10
2023-04-21T04:52:04.298Z,16.90
2023-04-21T04:54:30.917Z,14.50
2023-04-21T04:56:58.086Z,14.40
2023-04-21T04:59:24.731Z,11.40
2023-04-21T05:01:51.564Z,12.80
2023-04-21T05:04:18.590Z,10.50
2023-04-21T05:06:45.661Z,13.80
2023-04-21T05:09:14.663Z,14.30
2023-04-21T05:11:42.039Z,12.20
2023-04-21T05:14:08.708Z,15.60
2023-04-21T05:16:35.861Z,10.30
2023-04-21T05:19:03.535Z,10.00
2023-04-21T05:21:31.289Z,11.80
2023-04-21T05:23:59.215Z,10.00
2023-04-21T05:26:27.580Z,12.80
2023-04-21T05:28:58.708Z,10.80
2023-04-21T05:31:26.400Z,9.40
2023-04-21T05:33:53.441Z,13.30
2023-04-21T05:36:20.482Z,13.70
2023-04-21T05:38:47.612Z,9.30
2023-04-21T05:41:14.277Z,11.40
2023-04-21T05:43:40.921Z,9.10
2023-04-21T05:46:11.456Z,12.30
2023-04-21T05:48:38.498Z,7.50
2023-04-21T05:51:12.836Z,9.10
2023-04-21T05:53:40.081Z,7.70
2023-04-21T05:56:09.948Z,9.40
2023-04-21T05:58:42.396Z,7.60
2023-04-21T06:01:11.468Z,7.40
2023-04-21T06:03:40.357Z,10.30
2023-04-21T06:06:10.416Z,15.90
2023-04-21T06:08:39.296Z,18.40
2023-04-21T06:11:07.816Z,10.00
2023-04-21T06:13:38.848Z,7.60
2023-04-21T06:16:09.127Z,9.40
2023-04-21T06:18:38.398Z,12.50
2023-04-21T06:21:07.300Z,9.00
2023-04-21T06:23:36.359Z,7.00
2023-04-21T06:26:07.804Z,7.20
2023-04-21T06:28:39.361Z,6.60
2023-04-21T06:31:09.909Z,4.90
2023-04-21T06:33:38.384Z,5.60
2023-04-21T06:36:07.064Z,5.60
2023-04-21T06:38:36.096Z,53.10
2023-04-21T06:41:04.690Z,6.80
2023-04-21T06:43:34.313Z,6.50
2023-04-21T06:46:03.689Z,7.20
2023-04-21T06:48:33.340Z,12.40
2023-04-21T06:51:02.914Z,5.60
2023-04-21T06:53:31.639Z,4.90
2023-04-21T07:05:56.373Z,15.10
2023-04-21T07:08:23.022Z,6.80
2023-04-21T07:10:49.863Z,5.10
2023-04-21T07:13:17.883Z,6.00
2023-04-21T07:15:44.626Z,4.10
2023-04-21T07:18:11.235Z,8.80
2023-04-21T07:20:38.043Z,8.90
2023-04-21T07:23:04.935Z,6.00
2023-04-21T07:25:31.494Z,4.90
2023-04-21T07:27:58.110Z,6.90
2023-04-21T07:30:24.779Z,5.40
2023-04-21T07:32:51.646Z,4.90
2023-04-21T07:35:18.517Z,4.00
2023-04-21T07:37:45.639Z,6.40
2023-04-21T07:40:12.276Z,4.70
2023-04-21T07:42:39.509Z,4.30
2023-04-21T07:45:07.223Z,4.20
2023-04-21T07:47:33.837Z,3.90
2023-04-21T07:50:00.528Z,3.80
2023-04-21T07:52:27.330Z,6.30
2023-04-21T07:54:53.927Z,3.20
2023-04-21T07:57:20.512Z,4.00
2023-04-21T07:59:47.099Z,3.00
2023-04-21T08:02:13.793Z,3.80
2023-04-21T08:04:40.412Z,5.20
2023-04-21T08:07:07.486Z,3.10
2023-04-21T08:09:34.363Z,3.40
2023-04-21T08:12:02.247Z,4.50
2023-04-21T08:14:29.170Z,2.70
2023-04-21T08:16:57.289Z,3.70
2023-04-21T08:19:24.626Z,3.40
2023-04-21T08:21:51.233Z,2.90
2023-04-21T08:24:17.896Z,3.60
2023-04-21T08:26:45.139Z,4.00
2023-04-21T08:29:13.430Z,3.40
2023-04-21T08:31:40.253Z,2.30
2023-04-21T08:34:07.383Z,5.40
2023-04-21T08:36:34.552Z,6.20
2023-04-21T08:39:01.846Z,4.80
2023-04-21T08:41:28.482Z,6.70
2023-04-21T08:43:55.803Z,9.40
2023-04-21T08:46:23.433Z,4.20
2023-04-21T08:48:50.070Z,25.10
2023-04-21T08:51:24.318Z,4.70
2023-04-21T08:53:51.925Z,9.60
2023-04-21T08:56:18.851Z,6.40
2023-04-21T08:58:45.389Z,9.70
2023-04-21T09:01:12.313Z,7.20
2023-04-21T09:03:39.253Z,2.40
2023-04-21T09:06:09.604Z,4.20
2023-04-21T09:08:43.407Z,2.70
2023-04-21T09:11:14.448Z,25.00
2023-04-21T09:13:43.229Z,13.10
2023-04-21T09:16:21.766Z,27.10
2023-04-21T09:18:50.261Z,28.60
2023-04-21T09:21:19.731Z,5.20
2023-04-21T09:23:48.567Z,4.80
2023-04-21T09:26:16.539Z,6.70
2023-04-21T09:28:45.163Z,10.20
2023-04-21T09:31:29.203Z,4.40
2023-04-21T09:34:01.072Z,3.70
2023-04-21T09:36:30.791Z,26.70
2023-04-21T09:39:29.186Z,27.50
2023-04-21T09:41:49.615Z,5.20
2023-04-21T09:44:17.723Z,6.30
2023-04-21T09:46:50.060Z,9.00
2023-04-21T09:49:22.713Z,7.20
2023-04-21T09:52:14.646Z,26.80
2023-04-21T09:54:40.742Z,11.70
2023-04-21T09:57:13.610Z,2.70
2023-04-21T09:59:46.345Z,5.70
2023-04-21T10:02:13.899Z,2.80
2023-04-21T10:04:43.895Z,5.10
2023-04-21T10:07:11.743Z,7.60
2023-04-21T10:09:54.751Z,3.60
2023-04-21T10:12:22.746Z,8.20
2023-04-21T10:14:56.937Z,3.00
2023-04-21T10:17:25.485Z,5.30
2023-04-21T10:19:59.116Z,3.90
2023-04-21T10:22:33.873Z,2.30
2023-04-21T10:25:03.558Z,3.50
2023-04-21T10:27:40.625Z,2.80
2023-04-21T10:30:22.454Z,2.80
2023-04-21T10:33:01.831Z,3.60
2023-04-21T10:36:01.044Z,5.30
2023-04-21T10:38:35.698Z,5.80
2023-04-21T10:41:27.727Z,2.90
2023-04-21T10:43:54.715Z,3.30
2023-04-21T10:46:35.142Z,3.70
2023-04-21T10:49:23.787Z,6.90
2023-04-21T10:51:59.710Z,3.60
2023-04-21T10:54:28.365Z,2.50
2023-04-21T10:56:56.726Z,2.30
2023-04-21T10:59:25.220Z,5.90
2023-04-21T11:01:52.536Z,3.70
2023-04-21T11:04:23.148Z,3.00
2023-04-21T11:07:11.967Z,3.00
2023-04-21T11:09:40.045Z,5.00
2023-04-21T11:12:10.861Z,7.00
2023-04-21T11:14:40.428Z,3.50
2023-04-21T11:17:16.149Z,2.60
2023-04-21T11:19:54.399Z,6.00
2023-04-21T11:22:23.884Z,3.00
2023-04-21T11:24:54.284Z,3.50
2023-04-21T11:28:00.409Z,2.90
2023-04-21T11:30:34.869Z,2.60
2023-04-21T11:33:01.818Z,5.50
2023-04-21T11:35:32.158Z,2.00
2023-04-21T11:37:58.900Z,16.10
2023-04-21T11:40:25.633Z,13.30
2023-04-21T11:42:52.756Z,4.70
2023-04-21T11:45:22.532Z,46.80
2023-04-21T11:47:49.514Z,21.20
2023-04-21T11:50:31.614Z,19.50
2023-04-21T11:52:58.340Z,5.00
2023-04-21T11:55:25.001Z,3.90
2023-04-21T11:57:51.572Z,9.00
2023-04-21T12:00:19.017Z,12.70
2023-04-21T12:02:54.616Z,4.60
2023-04-21T12:05:22.354Z,8.90
2023-04-21T12:07:48.910Z,8.20
2023-04-21T12:10:19.250Z,9.20
2023-04-21T12:12:46.520Z,7.90
2023-04-21T12:15:20.156Z,6.70
2023-04-21T12:17:48.965Z,6.30
2023-04-21T12:20:16.686Z,3.70
2023-04-21T12:22:43.739Z,13.70
2023-04-21T12:25:10.509Z,32.00
2023-04-21T12:27:37.256Z,19.00
2023-04-21T12:30:04.681Z,7.30
2023-04-21T12:32:31.415Z,14.90
2023-04-21T12:34:58.126Z,18.70
2023-04-21T12:37:24.712Z,6.10
2023-04-21T12:39:51.263Z,5.60
2023-04-21T12:42:17.811Z,5.50
2023-04-21T12:44:45.688Z,11.40
2023-04-21T12:47:12.305Z,7.50
2023-04-21T12:49:39.146Z,6.50
2023-04-21T12:52:06.261Z,7.70
2023-04-21T12:54:33.835Z,7.80
2023-04-21T12:57:00.704Z,3.70
2023-04-21T12:59:27.490Z,12.20
2023-04-21T13:01:54.984Z,10.20
2023-04-21T13:04:21.932Z,5.30
2023-04-21T13:06:48.970Z,9.40
2023-04-21T13:09:17.038Z,11.10
2023-04-21T13:11:43.751Z,8.80
2023-04-21T13:14:11.003Z,4.60
2023-04-21T13:16:37.972Z,7.20
2023-04-21T13:19:05.003Z,4.80
2023-04-21T13:21:32.761Z,6.00
2023-04-21T13:23:59.408Z,6.40
2023-04-21T13:26:27.070Z,6.70
2023-04-21T13:28:53.827Z,14.50
2023-04-21T13:31:20.651Z,6.30
2023-04-21T13:33:47.359Z,5.20
2023-04-21T13:36:14.069Z,4.60
2023-04-21T13:38:41.091Z,6.30
2023-04-21T13:41:08.693Z,5.10
2023-04-21T13:43:35.850Z,5.30
2023-04-21T13:46:02.529Z,4.60
2023-04-21T13:48:29.945Z,4.30
2023-04-21T13:50:56.723Z,4.60
2023-04-21T13:53:26.990Z,7.80
2023-04-21T13:55:56.908Z,3.60
2023-04-21T13:58:23.689Z,4.50
2023-04-21T14:00:50.453Z,4.60
2023-04-21T14:03:17.325Z,4.30
2023-04-21T14:05:44.101Z,4.50
2023-04-21T14:08:11.082Z,2.80
2023-04-21T14:10:37.863Z,4.20
2023-04-21T14:13:05.279Z,7.80
2023-04-21T14:15:32.192Z,5.70
2023-04-21T14:17:58.944Z,7.20
2023-04-21T14:20:25.904Z,5.70
2023-04-21T14:22:52.477Z,7.60
2023-04-21T14:25:19.239Z,5.80
2023-04-21T14:27:45.912Z,4.80
2023-04-21T14:30:13.896Z,6.50
2023-04-21T14:32:45.651Z,3.70
2023-04-21T14:35:13.133Z,6.40
2023-04-21T14:37:40.724Z,3.30
2023-04-21T14:40:08.809Z,3.40
2023-04-21T14:42:36.129Z,4.20
2023-04-21T14:45:02.854Z,2.30
2023-04-21T14:47:29.742Z,3.50
2023-04-21T14:49:57.017Z,3.80
2023-04-21T14:52:27.231Z,4.00
2023-04-21T14:54:53.960Z,5.80
2023-04-21T14:57:21.933Z,8.00
2023-04-21T14:59:50.559Z,3.70
2023-04-21T15:02:18.020Z,2.60
2023-04-21T15:04:45.049Z,6.40
2023-04-21T15:07:12.481Z,7.00
2023-04-21T15:09:39.405Z,7.10
2023-04-21T15:12:06.485Z,5.90
2023-04-21T15:14:33.286Z,7.20
2023-04-21T15:17:00.212Z,3.20
2023-04-21T15:19:26.956Z,6.00
2023-04-21T15:21:53.764Z,7.90
2023-04-21T15:24:20.603Z,3.90
2023-04-21T15:26:47.366Z,6.20
2023-04-21T15:29:14.289Z,4.70
2023-04-21T15:31:41.163Z,4.80
2023-04-21T15:34:08.805Z,6.30
2023-04-21T15:36:35.894Z,11.90
2023-04-21T15:39:03.041Z,8.40
2023-04-21T15:41:31.736Z,3.10
2023-04-21T15:44:00.283Z,4.50
2023-04-21T15:46:26.989Z,4.00
2023-04-21T15:48:53.929Z,4.20
2023-04-21T15:51:20.903Z,5.20
2023-04-21T15:53:49.650Z,4.10
2023-04-21T15:56:17.923Z,5.90
2023-04-21T15:58:44.982Z,4.10
2023-04-21T16:01:12.343Z,5.00
2023-04-21T16:03:40.238Z,5.20
2023-04-21T16:06:07.740Z,3.60
2023-04-21T16:08:34.563Z,3.90
2023-04-21T16:11:01.796Z,10.70
2023-04-21T16:13:29.339Z,9.30
2023-04-21T16:15:56.467Z,7.60
2023-04-21T16:18:23.296Z,6.40
2023-04-21T16:20:50.518Z,6.90
2023-04-21T16:23:17.252Z,6.20
2023-04-21T16:25:44.024Z,6.20
2023-04-21T16:28:11.660Z,5.50
2023-04-21T16:30:43.173Z,6.60
2023-04-21T16:33:14.607Z,10.60
2023-04-21T16:35:41.659Z,7.00
2023-04-21T16:38:08.731Z,8.10
2023-04-21T16:40:35.370Z,6.30
2023-04-21T16:43:02.284Z,5.60
2023-04-21T16:45:29.866Z,12.70
2023-04-21T16:47:57.793Z,8.60
2023-04-21T16:50:24.797Z,8.80
2023-04-21T16:52:51.573Z,11.60
2023-04-21T16:55:18.792Z,7.80
2023-04-21T16:57:45.573Z,8.40
2023-04-21T17:00:13.741Z,9.10
2023-04-21T17:02:40.433Z,7.80
2023-04-21T17:05:07.590Z,11.70
2023-04-21T17:07:34.406Z,6.00
2023-04-21T17:10:01.389Z,8.50
2023-04-21T17:12:27.958Z,12.60
2023-04-21T17:14:54.532Z,9.60
2023-04-21T17:17:21.196Z,11.50
2023-04-21T17:19:48.341Z,11.00
2023-04-21T17:22:14.922Z,12.70
2023-04-21T17:24:52.546Z,10.20
2023-04-21T17:27:20.904Z,12.80
2023-04-21T17:29:47.744Z,12.40
2023-04-21T17:32:14.470Z,11.20
2023-04-21T17:34:41.229Z,10.50
2023-04-21T17:37:08.000Z,12.40
2023-04-21T17:39:34.620Z,15.10
2023-04-21T17:42:02.590Z,12.40
2023-04-21T17:44:29.435Z,27.70
2023-04-21T17:46:56.636Z,28.90
2023-04-21T17:49:24.849Z,35.50
2023-04-21T17:51:51.710Z,46.90
2023-04-21T17:54:18.395Z,56.00
2023-04-21T17:56:47.902Z,53.30
2023-04-21T17:59:14.929Z,51.80
2023-04-21T18:01:41.570Z,47.70
2023-04-21T18:04:08.594Z,41.10
2023-04-21T18:06:36.692Z,36.80
2023-04-21T18:09:05.232Z,28.80
2023-04-21T18:11:32.016Z,30.80
2023-04-21T18:13:59.044Z,30.00
2023-04-21T18:16:26.436Z,37.90
2023-04-21T18:18:53.368Z,50.10
2023-04-21T18:21:20.781Z,283.90
2023-04-21T18:23:47.414Z,225.30
2023-04-21T18:26:14.059Z,183.30
2023-04-21T18:28:40.653Z,245.00
2023-04-21T18:31:07.267Z,200.10
2023-04-21T18:33:34.497Z,98.20
2023-04-21T18:36:01.257Z,96.60
2023-04-21T18:38:27.853Z,132.30
2023-04-21T18:40:55.753Z,85.60
2023-04-21T18:43:22.616Z,75.60
2023-04-21T18:45:49.264Z,64.50
2023-04-21T18:48:15.922Z,69.00
2023-04-21T18:50:42.868Z,73.30
2023-04-21T18:53:09.595Z,62.90
2023-04-21T18:55:37.405Z,62.20
2023-04-21T18:58:04.333Z,56.70
2023-04-21T19:00:32.316Z,67.10
2023-04-21T19:03:04.111Z,59.40
2023-04-21T19:05:31.961Z,75.00
2023-04-21T19:07:58.897Z,91.10
2023-04-21T19:10:26.684Z,88.50
2023-04-21T19:12:53.771Z,65.00
2023-04-21T19:15:22.151Z,56.00
2023-04-21T19:17:48.725Z,60.20
2023-04-21T19:20:15.702Z,48.30
2023-04-21T19:22:42.396Z,55.40
2023-04-21T19:25:09.853Z,53.00
2023-04-21T19:27:36.949Z,55.50
2023-04-21T19:30:05.068Z,68.30
2023-04-21T19:32:31.847Z,81.20
2023-04-21T19:34:58.696Z,89.40
2023-04-21T19:37:26.492Z,82.20
2023-04-21T19:39:53.261Z,72.10
2023-04-21T19:42:19.958Z,80.20
2023-04-21T19:44:46.670Z,80.10
2023-04-21T19:47:13.572Z,68.90
2023-04-21T19:49:40.527Z,72.30
2023-04-21T19:52:07.143Z,77.50
2023-04-21T19:54:34.062Z,66.00
2023-04-21T19:57:01.736Z,62.80
2023-04-21T19:59:28.607Z,68.20
2023-04-21T20:01:55.468Z,66.00
2023-04-21T20:04:22.574Z,63.30
2023-04-21T20:06:49.401Z,64.50
2023-04-21T20:09:16.111Z,64.60
2023-04-21T20:11:43.801Z,70.10
2023-04-21T20:14:10.728Z,69.30
2023-04-21T20:16:37.862Z,75.70
2023-04-21T20:19:04.638Z,78.60
2023-04-21T20:21:32.418Z,69.10
2023-04-21T20:23:59.142Z,77.60
2023-04-21T20:26:26.123Z,88.40
2023-04-21T20:28:52.768Z,83.10
2023-04-21T20:31:23.594Z,90.40
2023-04-21T20:33:50.481Z,86.50
2023-04-21T20:36:17.760Z,72.00
2023-04-21T20:38:46.423Z,72.70
2023-04-21T20:41:13.593Z,87.90
2023-04-21T20:43:40.599Z,61.90
2023-04-21T20:46:08.775Z,60.60
2023-04-21T20:48:35.546Z,72.50
2023-04-21T20:51:02.799Z,73.00
2023-04-21T20:53:29.425Z,70.00
2023-04-21T20:55:56.340Z,69.00
2023-04-21T20:58:24.474Z,70.90
2023-04-21T21:00:51.480Z,82.20
2023-04-21T21:03:21.022Z,65.00
2023-04-21T21:05:47.996Z,59.60
2023-04-21T21:08:15.232Z,59.40
2023-04-21T21:10:42.480Z,72.80
2023-04-21T21:13:09.168Z,57.00
2023-04-21T21:15:35.988Z,62.50
2023-04-21T21:18:04.662Z,57.40
2023-04-21T21:20:31.533Z,67.10
2023-04-21T21:22:58.160Z,79.20
2023-04-21T21:25:25.077Z,129.00
2023-04-21T21:27:51.780Z,91.40
2023-04-21T21:30:18.610Z,85.20
2023-04-21T21:32:49.559Z,64.10
2023-04-21T21:35:16.716Z,51.60
2023-04-21T21:37:43.325Z,60.10
2023-04-21T21:40:11.038Z,56.40
2023-04-21T21:42:39.100Z,62.50
2023-04-21T21:45:06.717Z,61.60
2023-04-21T21:47:36.487Z,59.30
2023-04-21T21:50:05.840Z,59.70
2023-04-21T21:52:32.450Z,62.20
2023-04-21T21:54:59.098Z,56.30
2023-04-21T21:57:25.805Z,50.70
2023-04-21T21:59:52.641Z,53.40
2023-04-21T22:02:19.311Z,55.50
2023-04-21T22:04:46.121Z,65.80
2023-04-21T22:07:12.733Z,68.40
2023-04-21T22:09:40.040Z,60.60
2023-04-21T22:12:07.387Z,51.80
2023-04-21T22:14:34.269Z,54.60
2023-04-21T22:17:00.943Z,64.30
2023-04-21T22:19:27.564Z,64.60
2023-04-21T22:21:54.353Z,61.30
2023-04-21T22:24:21.256Z,68.90
2023-04-21T22:26:48.207Z,62.60
2023-04-21T22:29:14.802Z,75.60
2023-04-21T22:31:41.618Z,91.90
2023-04-21T22:34:08.564Z,61.00
2023-04-21T22:36:35.204Z,63.70
2023-04-21T22:39:01.972Z,73.20
2023-04-21T22:41:28.632Z,69.80
2023-04-21T22:43:57.746Z,67.40
2023-04-21T22:46:24.390Z,68.10
2023-04-21T22:48:54.122Z,74.10
2023-04-21T22:51:21.575Z,67.20
2023-04-21T22:53:48.196Z,70.10
2023-04-21T22:56:15.171Z,72.30
2023-04-21T22:58:42.812Z,64.20
2023-04-21T23:01:09.662Z,58.80
2023-04-21T23:03:37.104Z,68.40
2023-04-21T23:06:04.011Z,70.60
2023-04-21T23:08:30.535Z,60.00
2023-04-21T23:10:57.563Z,66.70
2023-04-21T23:13:24.206Z,59.20
2023-04-21T23:15:50.754Z,62.10
2023-04-21T23:18:17.445Z,63.70
2023-04-21T23:20:44.118Z,68.20
2023-04-21T23:23:10.707Z,63.60
2023-04-21T23:25:37.364Z,60.20
2023-04-21T23:28:03.999Z,74.60
2023-04-21T23:30:30.649Z,59.70
2023-04-21T23:32:57.588Z,66.50
2023-04-21T23:35:24.230Z,58.40
2023-04-21T23:37:50.744Z,64.60
2023-04-21T23:40:17.432Z,51.50
2023-04-21T23:42:47.537Z,51.80
2023-04-21T23:45:14.675Z,65.80
2023-04-21T23:47:41.490Z,59.80
2023-04-21T23:50:08.294Z,59.90
2023-04-21T23:52:35.001Z,60.10
2023-04-21T23:55:01.645Z,60.30
2023-04-21T23:57:28.349Z,54.70
2023-04-21T23:59:54.869Z,54.00
